sensor_id;sensor_type;location;lat;lon;timestamp;temperature;humidity
1413;DHT22;701;52.526;13.408;2023-04-16T00:02:21;11.30;52.60
1413;DHT22;701;52.526;13.408;2023-04-16T00:04:47;11.30;52.60
1413;DHT22;701;52.526;13.408;2023-04-16T00:07:13;11.30;52.80
1413;DHT22;701;52.526;13.408;2023-04-16T00:09:38;11.30;52.90
1413;DHT22;701;52.526;13.408;2023-04-16T00:12:05;11.30;52.90
1413;DHT22;701;52.526;13.408;2023-04-16T00:14:31;11.30;52.90
1413;DHT22;701;52.526;13.408;2023-04-16T00:16:57;11.40;52.90
1413;DHT22;701;52.526;13.408;2023-04-16T00:19:22;11.40;52.80
1413;DHT22;701;52.526;13.408;2023-04-16T00:21:48;11.40;52.70
1413;DHT22;701;52.526;13.408;2023-04-16T00:24:14;11.40;52.60
1413;DHT22;701;52.526;13.408;2023-04-16T00:26:40;11.40;52.60
1413;DHT22;701;52.526;13.408;2023-04-16T00:29:08;11.40;52.40
1413;DHT22;701;52.526;13.408;2023-04-16T00:31:35;11.40;52.30
1413;DHT22;701;52.526;13.408;2023-04-16T00:34:02;11.40;52.20
1413;DHT22;701;52.526;13.408;2023-04-16T00:36:28;11.40;52.30
1413;DHT22;701;52.526;13.408;2023-04-16T00:38:55;11.40;52.20
1413;DHT22;701;52.526;13.408;2023-04-16T00:41:21;11.40;52.30
1413;DHT22;701;52.526;13.408;2023-04-16T00:43:51;11.50;52.30
1413;DHT22;701;52.526;13.408;2023-04-16T00:46:22;11.40;52.30
1413;DHT22;701;52.526;13.408;2023-04-16T00:48:49;11.40;52.30
1413;DHT22;701;52.526;13.408;2023-04-16T00:51:17;11.40;52.20
1413;DHT22;701;52.526;13.408;2023-04-16T00:53:44;11.40;52.00
1413;DHT22;701;52.526;13.408;2023-04-16T00:56:12;11.40;52.00
1413;DHT22;701;52.526;13.408;2023-04-16T00:58:38;11.40;52.10
1413;DHT22;701;52.526;13.408;2023-04-16T01:01:04;11.40;52.20
1413;DHT22;701;52.526;13.408;2023-04-16T01:03:38;11.40;52.00
1413;DHT22;701;52.526;13.408;2023-04-16T01:06:06;11.40;51.90
1413;DHT22;701;52.526;13.408;2023-04-16T01:08:32;11.40;51.90
1413;DHT22;701;52.526;13.408;2023-04-16T01:10:58;11.40;52.00
1413;DHT22;701;52.526;13.408;2023-04-16T01:13:24;11.50;52.00
1413;DHT22;701;52.526;13.408;2023-04-16T01:15:50;11.40;51.90
1413;DHT22;701;52.526;13.408;2023-04-16T01:18:20;11.40;51.80
1413;DHT22;701;52.526;13.408;2023-04-16T01:20:47;11.40;51.60
1413;DHT22;701;52.526;13.408;2023-04-16T01:23:14;11.40;51.80
1413;DHT22;701;52.526;13.408;2023-04-16T01:25:39;11.40;51.80
1413;DHT22;701;52.526;13.408;2023-04-16T01:28:06;11.40;51.90
1413;DHT22;701;52.526;13.408;2023-04-16T01:30:32;11.40;52.10
1413;DHT22;701;52.526;13.408;2023-04-16T01:33:09;11.40;52.10
1413;DHT22;701;52.526;13.408;2023-04-16T01:35:35;11.40;52.10
1413;DHT22;701;52.526;13.408;2023-04-16T01:38:01;11.40;52.20
1413;DHT22;701;52.526;13.408;2023-04-16T01:40:28;11.40;52.20
1413;DHT22;701;52.526;13.408;2023-04-16T01:42:54;11.40;52.00
1413;DHT22;701;52.526;13.408;2023-04-16T01:45:19;11.40;52.00
1413;DHT22;701;52.526;13.408;2023-04-16T01:47:46;11.40;51.90
1413;DHT22;701;52.526;13.408;2023-04-16T01:50:11;11.40;51.70
1413;DHT22;701;52.526;13.408;2023-04-16T01:52:37;11.40;51.70
1413;DHT22;701;52.526;13.408;2023-04-16T01:55:03;11.40;51.90
1413;DHT22;701;52.526;13.408;2023-04-16T01:57:29;11.40;51.70
1413;DHT22;701;52.526;13.408;2023-04-16T01:59:55;11.40;51.80
1413;DHT22;701;52.526;13.408;2023-04-16T02:02:21;11.40;51.80
1413;DHT22;701;52.526;13.408;2023-04-16T02:04:54;11.40;51.60
1413;DHT22;701;52.526;13.408;2023-04-16T02:07:20;11.40;51.60
1413;DHT22;701;52.526;13.408;2023-04-16T02:09:46;11.50;51.70
1413;DHT22;701;52.526;13.408;2023-04-16T02:12:12;11.50;51.50
1413;DHT22;701;52.526;13.408;2023-04-16T02:14:38;11.40;51.20
1413;DHT22;701;52.526;13.408;2023-04-16T02:17:03;11.40;51.20
1413;DHT22;701;52.526;13.408;2023-04-16T02:19:41;11.40;51.10
1413;DHT22;701;52.526;13.408;2023-04-16T02:22:08;11.40;51.00
1413;DHT22;701;52.526;13.408;2023-04-16T02:24:33;11.40;51.00
1413;DHT22;701;52.526;13.408;2023-04-16T02:27:03;11.40;50.60
1413;DHT22;701;52.526;13.408;2023-04-16T02:29:29;11.40;50.50
1413;DHT22;701;52.526;13.408;2023-04-16T02:32:03;11.40;50.30
1413;DHT22;701;52.526;13.408;2023-04-16T02:34:31;11.30;50.40
1413;DHT22;701;52.526;13.408;2023-04-16T02:36:59;11.30;50.60
1413;DHT22;701;52.526;13.408;2023-04-16T02:39:25;11.30;50.60
1413;DHT22;701;52.526;13.408;2023-04-16T02:41:52;11.30;50.50
1413;DHT22;701;52.526;13.408;2023-04-16T02:44:18;11.30;50.30
1413;DHT22;701;52.526;13.408;2023-04-16T02:46:46;11.30;50.50
1413;DHT22;701;52.526;13.408;2023-04-16T02:49:11;11.30;51.20
1413;DHT22;701;52.526;13.408;2023-04-16T02:51:37;11.30;50.30
1413;DHT22;701;52.526;13.408;2023-04-16T02:54:03;11.30;50.40
1413;DHT22;701;52.526;13.408;2023-04-16T02:56:30;11.30;50.30
1413;DHT22;701;52.526;13.408;2023-04-16T02:58:55;11.30;50.20
1413;DHT22;701;52.526;13.408;2023-04-16T03:01:21;11.30;50.20
1413;DHT22;701;52.526;13.408;2023-04-16T03:03:47;11.20;50.40
1413;DHT22;701;52.526;13.408;2023-04-16T03:06:13;11.20;50.50
1413;DHT22;701;52.526;13.408;2023-04-16T03:08:38;11.20;50.60
1413;DHT22;701;52.526;13.408;2023-04-16T03:11:04;11.20;50.90
1413;DHT22;701;52.526;13.408;2023-04-16T03:13:30;11.20;50.80
1413;DHT22;701;52.526;13.408;2023-04-16T03:15:56;11.20;50.80
1413;DHT22;701;52.526;13.408;2023-04-16T03:18:22;11.20;50.40
1413;DHT22;701;52.526;13.408;2023-04-16T03:20:52;11.10;50.20
1413;DHT22;701;52.526;13.408;2023-04-16T03:23:18;11.10;50.30
1413;DHT22;701;52.526;13.408;2023-04-16T03:25:44;11.10;50.20
1413;DHT22;701;52.526;13.408;2023-04-16T03:28:13;11.10;50.50
1413;DHT22;701;52.526;13.408;2023-04-16T03:30:41;11.10;50.70
1413;DHT22;701;52.526;13.408;2023-04-16T03:33:07;11.10;50.70
1413;DHT22;701;52.526;13.408;2023-04-16T03:35:33;11.00;50.00
1413;DHT22;701;52.526;13.408;2023-04-16T03:37:59;11.00;50.20
1413;DHT22;701;52.526;13.408;2023-04-16T03:40:25;11.00;50.20
1413;DHT22;701;52.526;13.408;2023-04-16T03:42:52;10.90;50.00
1413;DHT22;701;52.526;13.408;2023-04-16T03:45:18;10.90;50.30
1413;DHT22;701;52.526;13.408;2023-04-16T03:47:45;10.90;50.50
1413;DHT22;701;52.526;13.408;2023-04-16T03:50:13;10.90;50.20
1413;DHT22;701;52.526;13.408;2023-04-16T03:52:40;10.90;50.00
1413;DHT22;701;52.526;13.408;2023-04-16T03:55:06;10.90;49.90
1413;DHT22;701;52.526;13.408;2023-04-16T03:57:32;10.90;49.80
1413;DHT22;701;52.526;13.408;2023-04-16T04:00:04;10.80;49.60
1413;DHT22;701;52.526;13.408;2023-04-16T04:02:39;10.80;49.90
1413;DHT22;701;52.526;13.408;2023-04-16T04:05:09;10.80;49.90
1413;DHT22;701;52.526;13.408;2023-04-16T04:07:36;10.80;50.20
1413;DHT22;701;52.526;13.408;2023-04-16T04:10:02;10.80;50.10
1413;DHT22;701;52.526;13.408;2023-04-16T04:12:28;10.80;49.80
1413;DHT22;701;52.526;13.408;2023-04-16T04:14:55;10.80;50.00
1413;DHT22;701;52.526;13.408;2023-04-16T04:17:20;10.80;50.00
1413;DHT22;701;52.526;13.408;2023-04-16T04:19:46;10.80;50.20
1413;DHT22;701;52.526;13.408;2023-04-16T04:22:12;10.80;50.30
1413;DHT22;701;52.526;13.408;2023-04-16T04:24:38;10.80;50.50
1413;DHT22;701;52.526;13.408;2023-04-16T04:27:04;10.80;50.60
1413;DHT22;701;52.526;13.408;2023-04-16T04:29:30;10.80;50.60
1413;DHT22;701;52.526;13.408;2023-04-16T04:31:56;10.80;50.50
1413;DHT22;701;52.526;13.408;2023-04-16T04:34:23;10.80;50.40
1413;DHT22;701;52.526;13.408;2023-04-16T04:36:49;10.80;50.40
1413;DHT22;701;52.526;13.408;2023-04-16T04:39:15;10.80;50.30
1413;DHT22;701;52.526;13.408;2023-04-16T04:41:42;10.90;50.50
1413;DHT22;701;52.526;13.408;2023-04-16T04:44:08;10.80;50.30
1413;DHT22;701;52.526;13.408;2023-04-16T04:46:34;10.90;50.30
1413;DHT22;701;52.526;13.408;2023-04-16T04:49:00;10.90;50.10
1413;DHT22;701;52.526;13.408;2023-04-16T04:51:26;10.90;50.00
1413;DHT22;701;52.526;13.408;2023-04-16T04:53:52;11.00;49.90
1413;DHT22;701;52.526;13.408;2023-04-16T04:56:18;11.00;49.90
1413;DHT22;701;52.526;13.408;2023-04-16T04:58:44;11.00;49.50
1413;DHT22;701;52.526;13.408;2023-04-16T05:01:09;11.00;49.50
1413;DHT22;701;52.526;13.408;2023-04-16T05:03:35;11.00;49.50
1413;DHT22;701;52.526;13.408;2023-04-16T05:06:01;11.00;49.50
1413;DHT22;701;52.526;13.408;2023-04-16T05:08:27;11.00;49.50
1413;DHT22;701;52.526;13.408;2023-04-16T05:10:52;11.00;49.50
1413;DHT22;701;52.526;13.408;2023-04-16T05:13:18;11.00;49.20
1413;DHT22;701;52.526;13.408;2023-04-16T05:15:44;10.90;49.00
1413;DHT22;701;52.526;13.408;2023-04-16T05:18:10;10.90;49.10
1413;DHT22;701;52.526;13.408;2023-04-16T05:20:36;10.90;49.40
1413;DHT22;701;52.526;13.408;2023-04-16T05:23:02;10.90;49.20
1413;DHT22;701;52.526;13.408;2023-04-16T05:25:28;10.90;49.10
1413;DHT22;701;52.526;13.408;2023-04-16T05:27:54;10.90;49.30
1413;DHT22;701;52.526;13.408;2023-04-16T05:30:19;10.90;49.40
1413;DHT22;701;52.526;13.408;2023-04-16T05:32:45;10.90;50.00
1413;DHT22;701;52.526;13.408;2023-04-16T05:35:11;10.90;49.10
1413;DHT22;701;52.526;13.408;2023-04-16T05:37:37;11.00;48.70
1413;DHT22;701;52.526;13.408;2023-04-16T05:40:03;11.00;48.70
1413;DHT22;701;52.526;13.408;2023-04-16T05:42:29;11.00;48.50
1413;DHT22;701;52.526;13.408;2023-04-16T05:44:55;11.00;48.70
1413;DHT22;701;52.526;13.408;2023-04-16T05:47:22;11.00;48.60
1413;DHT22;701;52.526;13.408;2023-04-16T05:49:48;11.00;48.70
1413;DHT22;701;52.526;13.408;2023-04-16T05:52:14;11.00;48.60
1413;DHT22;701;52.526;13.408;2023-04-16T05:54:40;11.00;48.40
1413;DHT22;701;52.526;13.408;2023-04-16T05:57:05;11.00;48.40
1413;DHT22;701;52.526;13.408;2023-04-16T05:59:31;11.00;48.40
1413;DHT22;701;52.526;13.408;2023-04-16T06:01:57;11.00;48.60
1413;DHT22;701;52.526;13.408;2023-04-16T06:04:23;11.10;48.80
1413;DHT22;701;52.526;13.408;2023-04-16T06:06:48;11.10;48.50
1413;DHT22;701;52.526;13.408;2023-04-16T06:09:14;11.20;48.30
1413;DHT22;701;52.526;13.408;2023-04-16T06:11:40;11.20;48.10
1413;DHT22;701;52.526;13.408;2023-04-16T06:14:06;11.20;47.60
1413;DHT22;701;52.526;13.408;2023-04-16T06:16:31;11.30;47.10
1413;DHT22;701;52.526;13.408;2023-04-16T06:18:57;11.30;46.80
1413;DHT22;701;52.526;13.408;2023-04-16T06:21:23;11.20;46.80
1413;DHT22;701;52.526;13.408;2023-04-16T06:23:49;11.30;46.80
1413;DHT22;701;52.526;13.408;2023-04-16T06:26:15;11.30;46.50
1413;DHT22;701;52.526;13.408;2023-04-16T06:28:40;11.30;46.50
1413;DHT22;701;52.526;13.408;2023-04-16T06:31:06;11.30;46.10
1413;DHT22;701;52.526;13.408;2023-04-16T06:33:32;11.40;46.20
1413;DHT22;701;52.526;13.408;2023-04-16T06:35:57;11.40;46.00
1413;DHT22;701;52.526;13.408;2023-04-16T06:38:23;11.40;45.90
1413;DHT22;701;52.526;13.408;2023-04-16T06:40:49;11.40;45.50
1413;DHT22;701;52.526;13.408;2023-04-16T06:43:15;11.40;46.20
1413;DHT22;701;52.526;13.408;2023-04-16T06:45:43;11.40;45.60
1413;DHT22;701;52.526;13.408;2023-04-16T06:48:08;11.40;45.50
1413;DHT22;701;52.526;13.408;2023-04-16T06:50:34;11.40;45.60
1413;DHT22;701;52.526;13.408;2023-04-16T06:53:00;11.50;45.70
1413;DHT22;701;52.526;13.408;2023-04-16T06:55:26;11.60;45.70
1413;DHT22;701;52.526;13.408;2023-04-16T06:57:52;11.60;45.20
1413;DHT22;701;52.526;13.408;2023-04-16T07:00:18;11.70;45.20
1413;DHT22;701;52.526;13.408;2023-04-16T07:02:43;11.70;44.80
1413;DHT22;701;52.526;13.408;2023-04-16T07:05:09;11.80;44.70
1413;DHT22;701;52.526;13.408;2023-04-16T07:07:35;11.80;44.40
1413;DHT22;701;52.526;13.408;2023-04-16T07:10:01;11.80;44.10
1413;DHT22;701;52.526;13.408;2023-04-16T07:12:26;11.70;43.50
1413;DHT22;701;52.526;13.408;2023-04-16T07:14:52;11.70;43.40
1413;DHT22;701;52.526;13.408;2023-04-16T07:17:18;11.70;43.30
1413;DHT22;701;52.526;13.408;2023-04-16T07:19:44;11.70;43.30
1413;DHT22;701;52.526;13.408;2023-04-16T07:22:09;11.70;44.30
1413;DHT22;701;52.526;13.408;2023-04-16T07:24:35;11.70;44.00
1413;DHT22;701;52.526;13.408;2023-04-16T07:27:01;11.70;44.00
1413;DHT22;701;52.526;13.408;2023-04-16T07:29:26;11.70;43.80
1413;DHT22;701;52.526;13.408;2023-04-16T07:31:53;11.80;43.80
1413;DHT22;701;52.526;13.408;2023-04-16T07:34:19;11.70;43.40
1413;DHT22;701;52.526;13.408;2023-04-16T07:36:45;11.70;43.50
1413;DHT22;701;52.526;13.408;2023-04-16T07:39:11;11.60;43.50
1413;DHT22;701;52.526;13.408;2023-04-16T07:41:37;11.70;43.80
1413;DHT22;701;52.526;13.408;2023-04-16T07:44:05;11.60;43.70
1413;DHT22;701;52.526;13.408;2023-04-16T07:46:30;11.70;44.00
1413;DHT22;701;52.526;13.408;2023-04-16T07:48:56;11.70;44.00
1413;DHT22;701;52.526;13.408;2023-04-16T07:51:22;11.70;43.90
1413;DHT22;701;52.526;13.408;2023-04-16T07:53:48;11.70;43.70
1413;DHT22;701;52.526;13.408;2023-04-16T07:56:14;11.70;43.70
1413;DHT22;701;52.526;13.408;2023-04-16T07:58:40;11.70;43.40
1413;DHT22;701;52.526;13.408;2023-04-16T08:01:05;11.70;43.20
1413;DHT22;701;52.526;13.408;2023-04-16T08:03:31;11.70;43.50
1413;DHT22;701;52.526;13.408;2023-04-16T08:05:57;11.70;43.60
1413;DHT22;701;52.526;13.408;2023-04-16T08:08:23;11.70;43.70
1413;DHT22;701;52.526;13.408;2023-04-16T08:10:49;11.80;43.70
1413;DHT22;701;52.526;13.408;2023-04-16T08:13:22;11.80;43.60
1413;DHT22;701;52.526;13.408;2023-04-16T08:15:48;11.80;43.30
1413;DHT22;701;52.526;13.408;2023-04-16T08:18:14;11.80;43.20
1413;DHT22;701;52.526;13.408;2023-04-16T08:20:41;11.80;42.70
1413;DHT22;701;52.526;13.408;2023-04-16T08:23:07;11.80;42.90
1413;DHT22;701;52.526;13.408;2023-04-16T08:25:34;11.80;43.00
1413;DHT22;701;52.526;13.408;2023-04-16T08:27:59;11.80;43.00
1413;DHT22;701;52.526;13.408;2023-04-16T08:30:25;11.80;43.00
1413;DHT22;701;52.526;13.408;2023-04-16T08:32:51;11.80;43.10
1413;DHT22;701;52.526;13.408;2023-04-16T08:35:17;11.90;43.00
1413;DHT22;701;52.526;13.408;2023-04-16T08:37:43;11.80;43.00
1413;DHT22;701;52.526;13.408;2023-04-16T08:40:09;11.80;43.10
1413;DHT22;701;52.526;13.408;2023-04-16T08:42:40;11.90;43.50
1413;DHT22;701;52.526;13.408;2023-04-16T08:45:13;11.90;43.30
1413;DHT22;701;52.526;13.408;2023-04-16T08:47:46;12.00;43.10
1413;DHT22;701;52.526;13.408;2023-04-16T08:50:14;12.00;42.70
1413;DHT22;701;52.526;13.408;2023-04-16T08:52:52;12.00;43.70
1413;DHT22;701;52.526;13.408;2023-04-16T08:55:22;12.10;43.10
1413;DHT22;701;52.526;13.408;2023-04-16T08:57:53;12.10;42.80
1413;DHT22;701;52.526;13.408;2023-04-16T09:00:23;12.10;42.50
1413;DHT22;701;52.526;13.408;2023-04-16T09:02:49;12.20;42.00
1413;DHT22;701;52.526;13.408;2023-04-16T09:05:16;12.20;41.90
1413;DHT22;701;52.526;13.408;2023-04-16T09:07:46;12.20;41.60
1413;DHT22;701;52.526;13.408;2023-04-16T09:10:13;12.10;41.90
1413;DHT22;701;52.526;13.408;2023-04-16T09:12:40;12.10;41.90
1413;DHT22;701;52.526;13.408;2023-04-16T09:15:09;12.20;41.90
1413;DHT22;701;52.526;13.408;2023-04-16T09:17:35;12.20;41.60
1413;DHT22;701;52.526;13.408;2023-04-16T09:20:02;12.30;41.30
1413;DHT22;701;52.526;13.408;2023-04-16T09:22:31;12.40;41.10
1413;DHT22;701;52.526;13.408;2023-04-16T09:24:57;12.60;41.00
1413;DHT22;701;52.526;13.408;2023-04-16T09:27:24;12.70;40.20
1413;DHT22;701;52.526;13.408;2023-04-16T09:29:50;12.70;39.90
1413;DHT22;701;52.526;13.408;2023-04-16T09:32:16;12.80;39.10
1413;DHT22;701;52.526;13.408;2023-04-16T09:35:07;12.80;38.10
1413;DHT22;701;52.526;13.408;2023-04-16T09:37:33;12.80;37.70
1413;DHT22;701;52.526;13.408;2023-04-16T09:40:00;12.80;38.10
1413;DHT22;701;52.526;13.408;2023-04-16T09:42:32;12.70;38.00
1413;DHT22;701;52.526;13.408;2023-04-16T09:44:58;12.70;38.00
1413;DHT22;701;52.526;13.408;2023-04-16T09:47:25;12.70;38.00
1413;DHT22;701;52.526;13.408;2023-04-16T09:50:02;12.70;38.00
1413;DHT22;701;52.526;13.408;2023-04-16T09:52:28;12.60;37.90
1413;DHT22;701;52.526;13.408;2023-04-16T09:54:54;12.60;37.90
1413;DHT22;701;52.526;13.408;2023-04-16T09:57:21;12.60;37.90
1413;DHT22;701;52.526;13.408;2023-04-16T09:59:51;12.70;38.00
1413;DHT22;701;52.526;13.408;2023-04-16T10:02:17;12.70;38.00
1413;DHT22;701;52.526;13.408;2023-04-16T10:04:47;12.80;38.10
1413;DHT22;701;52.526;13.408;2023-04-16T10:07:13;12.90;37.70
1413;DHT22;701;52.526;13.408;2023-04-16T10:09:39;13.00;37.30
1413;DHT22;701;52.526;13.408;2023-04-16T10:12:06;13.20;36.60
1413;DHT22;701;52.526;13.408;2023-04-16T10:14:32;13.30;35.70
1413;DHT22;701;52.526;13.408;2023-04-16T10:17:02;13.50;34.80
1413;DHT22;701;52.526;13.408;2023-04-16T10:19:28;13.40;34.20
1413;DHT22;701;52.526;13.408;2023-04-16T10:21:57;13.40;34.20
1413;DHT22;701;52.526;13.408;2023-04-16T10:24:24;13.30;34.10
1413;DHT22;701;52.526;13.408;2023-04-16T10:26:51;13.30;34.10
1413;DHT22;701;52.526;13.408;2023-04-16T10:29:21;13.20;34.40
1413;DHT22;701;52.526;13.408;2023-04-16T10:31:48;13.30;34.30
1413;DHT22;701;52.526;13.408;2023-04-16T10:34:15;13.30;34.40
1413;DHT22;701;52.526;13.408;2023-04-16T10:36:41;13.40;34.20
1413;DHT22;701;52.526;13.408;2023-04-16T10:39:11;13.50;34.30
1413;DHT22;701;52.526;13.408;2023-04-16T10:41:38;13.70;34.40
1413;DHT22;701;52.526;13.408;2023-04-16T10:44:08;13.80;33.10
1413;DHT22;701;52.526;13.408;2023-04-16T10:46:39;13.90;32.90
1413;DHT22;701;52.526;13.408;2023-04-16T10:49:14;13.90;32.20
1413;DHT22;701;52.526;13.408;2023-04-16T10:51:40;13.90;31.60
1413;DHT22;701;52.526;13.408;2023-04-16T10:56:39;13.80;31.10
1413;DHT22;701;52.526;13.408;2023-04-16T10:59:06;13.70;30.90
1413;DHT22;701;52.526;13.408;2023-04-16T11:01:36;13.70;31.30
1413;DHT22;701;52.526;13.408;2023-04-16T11:09:59;13.90;31.00
1413;DHT22;701;52.526;13.408;2023-04-16T11:13:02;14.20;30.30
1413;DHT22;701;52.526;13.408;2023-04-16T11:15:30;14.60;29.20
1413;DHT22;701;52.526;13.408;2023-04-16T11:17:58;15.00;28.80
1413;DHT22;701;52.526;13.408;2023-04-16T11:20:26;15.30;27.60
1413;DHT22;701;52.526;13.408;2023-04-16T11:22:56;15.40;27.40
1413;DHT22;701;52.526;13.408;2023-04-16T11:25:24;15.50;27.60
1413;DHT22;701;52.526;13.408;2023-04-16T11:27:51;15.40;26.60
1413;DHT22;701;52.526;13.408;2023-04-16T11:30:26;15.30;26.40
1413;DHT22;701;52.526;13.408;2023-04-16T11:32:52;15.20;26.50
1413;DHT22;701;52.526;13.408;2023-04-16T11:35:19;14.90;26.30
1413;DHT22;701;52.526;13.408;2023-04-16T11:37:45;14.80;26.40
1413;DHT22;701;52.526;13.408;2023-04-16T11:40:12;14.60;26.70
1413;DHT22;701;52.526;13.408;2023-04-16T11:42:40;14.50;27.10
1413;DHT22;701;52.526;13.408;2023-04-16T11:45:09;14.40;27.00
1413;DHT22;701;52.526;13.408;2023-04-16T11:47:49;14.40;27.00
1413;DHT22;701;52.526;13.408;2023-04-16T11:50:28;14.40;27.00
1413;DHT22;701;52.526;13.408;2023-04-16T11:52:55;14.40;27.00
1413;DHT22;701;52.526;13.408;2023-04-16T11:55:23;14.40;27.40
1413;DHT22;701;52.526;13.408;2023-04-16T11:57:49;14.50;27.40
1413;DHT22;701;52.526;13.408;2023-04-16T12:00:15;14.50;27.40
1413;DHT22;701;52.526;13.408;2023-04-16T12:02:51;14.40;27.40
1413;DHT22;701;52.526;13.408;2023-04-16T12:05:32;14.30;27.70
1413;DHT22;701;52.526;13.408;2023-04-16T12:08:01;14.30;27.80
1413;DHT22;701;52.526;13.408;2023-04-16T12:10:28;14.30;28.00
1413;DHT22;701;52.526;13.408;2023-04-16T12:13:10;14.20;27.60
1413;DHT22;701;52.526;13.408;2023-04-16T12:18:12;13.90;28.30
1413;DHT22;701;52.526;13.408;2023-04-16T12:20:41;13.80;28.60
1413;DHT22;701;52.526;13.408;2023-04-16T12:23:08;13.70;29.40
1413;DHT22;701;52.526;13.408;2023-04-16T12:25:34;13.60;29.20
1413;DHT22;701;52.526;13.408;2023-04-16T12:28:00;13.50;29.60
1413;DHT22;701;52.526;13.408;2023-04-16T12:30:27;13.30;29.80
1413;DHT22;701;52.526;13.408;2023-04-16T12:33:16;13.30;29.80
1413;DHT22;701;52.526;13.408;2023-04-16T12:35:42;13.20;30.20
1413;DHT22;701;52.526;13.408;2023-04-16T12:38:09;13.10;30.40
1413;DHT22;701;52.526;13.408;2023-04-16T12:40:36;13.00;30.70
1413;DHT22;701;52.526;13.408;2023-04-16T12:43:02;12.90;31.30
1413;DHT22;701;52.526;13.408;2023-04-16T12:45:28;12.90;31.80
1413;DHT22;701;52.526;13.408;2023-04-16T12:47:54;12.90;32.20
1413;DHT22;701;52.526;13.408;2023-04-16T12:50:20;12.90;32.50
1413;DHT22;701;52.526;13.408;2023-04-16T12:52:47;12.90;32.70
1413;DHT22;701;52.526;13.408;2023-04-16T12:55:13;12.80;32.60
1413;DHT22;701;52.526;13.408;2023-04-16T12:57:39;12.90;33.00
1413;DHT22;701;52.526;13.408;2023-04-16T13:00:06;12.80;33.20
1413;DHT22;701;52.526;13.408;2023-04-16T13:02:35;12.80;33.60
1413;DHT22;701;52.526;13.408;2023-04-16T13:05:01;12.70;33.60
1413;DHT22;701;52.526;13.408;2023-04-16T13:07:27;12.70;33.60
1413;DHT22;701;52.526;13.408;2023-04-16T13:09:53;12.70;33.60
1413;DHT22;701;52.526;13.408;2023-04-16T13:12:19;12.60;33.70
1413;DHT22;701;52.526;13.408;2023-04-16T13:14:46;12.70;34.00
1413;DHT22;701;52.526;13.408;2023-04-16T13:17:11;12.70;34.70
1413;DHT22;701;52.526;13.408;2023-04-16T13:19:37;12.80;33.70
1413;DHT22;701;52.526;13.408;2023-04-16T13:22:03;12.80;33.70
1413;DHT22;701;52.526;13.408;2023-04-16T13:24:29;12.80;33.00
1413;DHT22;701;52.526;13.408;2023-04-16T13:26:55;12.80;32.80
1413;DHT22;701;52.526;13.408;2023-04-16T13:29:21;12.80;32.20
1413;DHT22;701;52.526;13.408;2023-04-16T13:31:47;12.90;32.10
1413;DHT22;701;52.526;13.408;2023-04-16T13:34:13;12.90;31.80
1413;DHT22;701;52.526;13.408;2023-04-16T13:36:45;13.00;31.70
1413;DHT22;701;52.526;13.408;2023-04-16T13:39:11;13.00;31.80
1413;DHT22;701;52.526;13.408;2023-04-16T13:41:38;13.10;31.40
1413;DHT22;701;52.526;13.408;2023-04-16T13:44:04;13.10;31.20
1413;DHT22;701;52.526;13.408;2023-04-16T13:46:31;13.10;31.00
1413;DHT22;701;52.526;13.408;2023-04-16T13:48:57;13.20;30.70
1413;DHT22;701;52.526;13.408;2023-04-16T13:51:23;13.20;30.60
1413;DHT22;701;52.526;13.408;2023-04-16T13:53:48;13.30;30.10
1413;DHT22;701;52.526;13.408;2023-04-16T13:56:15;13.40;30.00
1413;DHT22;701;52.526;13.408;2023-04-16T13:58:40;13.50;29.90
1413;DHT22;701;52.526;13.408;2023-04-16T14:01:07;13.70;29.60
1413;DHT22;701;52.526;13.408;2023-04-16T14:03:34;13.90;29.30
1413;DHT22;701;52.526;13.408;2023-04-16T14:06:02;14.00;28.90
1413;DHT22;701;52.526;13.408;2023-04-16T14:08:28;14.20;28.70
1413;DHT22;701;52.526;13.408;2023-04-16T14:10:55;14.40;28.30
1413;DHT22;701;52.526;13.408;2023-04-16T14:13:21;14.60;27.70
1413;DHT22;701;52.526;13.408;2023-04-16T14:15:47;14.80;27.20
1413;DHT22;701;52.526;13.408;2023-04-16T14:18:13;15.00;27.30
1413;DHT22;701;52.526;13.408;2023-04-16T14:20:40;15.00;26.50
1413;DHT22;701;52.526;13.408;2023-04-16T14:23:06;15.00;25.40
1413;DHT22;701;52.526;13.408;2023-04-16T14:25:32;14.90;25.00
1413;DHT22;701;52.526;13.408;2023-04-16T14:27:59;14.70;25.10
1413;DHT22;701;52.526;13.408;2023-04-16T14:30:26;14.60;25.60
1413;DHT22;701;52.526;13.408;2023-04-16T14:32:52;14.50;25.90
1413;DHT22;701;52.526;13.408;2023-04-16T14:35:18;14.30;26.20
1413;DHT22;701;52.526;13.408;2023-04-16T14:37:45;14.20;26.40
1413;DHT22;701;52.526;13.408;2023-04-16T14:40:11;14.00;26.70
1413;DHT22;701;52.526;13.408;2023-04-16T14:42:38;13.90;26.80
1413;DHT22;701;52.526;13.408;2023-04-16T14:45:04;13.80;27.50
1413;DHT22;701;52.526;13.408;2023-04-16T14:47:35;13.80;28.10
1413;DHT22;701;52.526;13.408;2023-04-16T14:50:02;13.60;28.30
1413;DHT22;701;52.526;13.408;2023-04-16T14:52:30;13.60;28.30
1413;DHT22;701;52.526;13.408;2023-04-16T14:54:56;13.40;28.20
1413;DHT22;701;52.526;13.408;2023-04-16T14:57:22;13.30;28.50
1413;DHT22;701;52.526;13.408;2023-04-16T14:59:49;13.20;29.20
1413;DHT22;701;52.526;13.408;2023-04-16T15:02:15;13.00;29.00
1413;DHT22;701;52.526;13.408;2023-04-16T15:04:40;12.90;29.40
1413;DHT22;701;52.526;13.408;2023-04-16T15:07:06;12.90;29.50
1413;DHT22;701;52.526;13.408;2023-04-16T15:09:33;12.70;29.90
1413;DHT22;701;52.526;13.408;2023-04-16T15:11:59;12.60;30.50
1413;DHT22;701;52.526;13.408;2023-04-16T15:14:25;12.60;31.40
1413;DHT22;701;52.526;13.408;2023-04-16T15:16:51;12.50;32.10
1413;DHT22;701;52.526;13.408;2023-04-16T15:19:16;12.40;32.90
1413;DHT22;701;52.526;13.408;2023-04-16T15:21:42;12.40;33.30
1413;DHT22;701;52.526;13.408;2023-04-16T15:24:08;12.30;33.40
1413;DHT22;701;52.526;13.408;2023-04-16T15:26:34;12.30;33.80
1413;DHT22;701;52.526;13.408;2023-04-16T15:29:00;12.20;34.20
1413;DHT22;701;52.526;13.408;2023-04-16T15:31:26;12.20;34.10
1413;DHT22;701;52.526;13.408;2023-04-16T15:33:52;12.10;34.10
1413;DHT22;701;52.526;13.408;2023-04-16T15:36:19;12.20;34.40
1413;DHT22;701;52.526;13.408;2023-04-16T15:38:45;12.10;34.40
1413;DHT22;701;52.526;13.408;2023-04-16T15:41:11;12.20;34.40
1413;DHT22;701;52.526;13.408;2023-04-16T15:43:37;12.20;34.40
1413;DHT22;701;52.526;13.408;2023-04-16T15:46:03;12.30;34.00
1413;DHT22;701;52.526;13.408;2023-04-16T15:48:28;12.20;33.80
1413;DHT22;701;52.526;13.408;2023-04-16T15:50:54;12.30;33.80
1413;DHT22;701;52.526;13.408;2023-04-16T15:53:20;12.30;33.80
1413;DHT22;701;52.526;13.408;2023-04-16T15:55:46;12.30;33.60
1413;DHT22;701;52.526;13.408;2023-04-16T15:58:14;12.30;33.40
1413;DHT22;701;52.526;13.408;2023-04-16T16:00:40;12.30;33.20
1413;DHT22;701;52.526;13.408;2023-04-16T16:03:06;12.30;33.20
1413;DHT22;701;52.526;13.408;2023-04-16T16:05:32;12.30;33.20
1413;DHT22;701;52.526;13.408;2023-04-16T16:07:57;12.30;33.20
1413;DHT22;701;52.526;13.408;2023-04-16T16:10:24;12.20;33.00
1413;DHT22;701;52.526;13.408;2023-04-16T16:12:50;12.20;33.10